createdAt,value
2023-02-17T00:00:32.820Z,19.87
2023-02-17T00:03:00.224Z,19.45
2023-02-17T00:05:27.924Z,19.94
2023-02-17T00:07:55.212Z,19.69
2023-02-17T00:10:23.613Z,19.58
2023-02-17T00:12:50.818Z,19.58
2023-02-17T00:15:18.175Z,19.74
2023-02-17T00:17:45.121Z,19.69
2023-02-17T00:20:12.860Z,19.67
2023-02-17T00:22:39.704Z,19.39
2023-02-17T00:25:06.967Z,19.11
2023-02-17T00:27:35.417Z,19.29
2023-02-17T00:30:02.258Z,19.06
2023-02-17T00:32:29.184Z,19.37
2023-02-17T00:34:56.088Z,19.53
2023-02-17T00:37:23.685Z,19.49
2023-02-17T00:39:50.832Z,19.22
2023-02-17T00:42:17.651Z,19.28
2023-02-17T00:44:45.912Z,19.13
2023-02-17T00:47:12.828Z,19.68
2023-02-17T00:49:39.737Z,19.52
2023-02-17T00:52:06.637Z,19.55
2023-02-17T00:54:33.534Z,19.69
2023-02-17T00:57:00.640Z,19.47
2023-02-17T00:59:27.723Z,19.37
2023-02-17T01:01:56.035Z,19.75
2023-02-17T01:04:23.265Z,19.63
2023-02-17T01:06:50.253Z,19.65
2023-02-17T01:09:17.132Z,19.14
2023-02-17T01:11:44.568Z,19.05
2023-02-17T01:14:14.508Z,19.69
2023-02-17T01:16:44.776Z,18.97
2023-02-17T01:19:15.742Z,19.21
2023-02-17T01:21:42.916Z,19.14
2023-02-17T01:24:12.048Z,19.48
2023-02-17T01:26:40.069Z,19.57
2023-02-17T01:29:07.917Z,19.26
2023-02-17T01:31:35.211Z,19.35
2023-02-17T01:34:04.086Z,19.60
2023-02-17T01:36:32.948Z,19.55
2023-02-17T01:39:00.908Z,19.44
2023-02-17T01:41:28.488Z,19.03
2023-02-17T01:44:06.921Z,19.05
2023-02-17T01:46:34.533Z,19.23
2023-02-17T01:49:03.427Z,18.98
2023-02-17T01:51:34.916Z,19.56
2023-02-17T01:54:05.942Z,18.99
2023-02-17T01:56:38.518Z,19.47
2023-02-17T01:59:10.224Z,19.28
2023-02-17T02:01:37.709Z,19.16
2023-02-17T02:04:06.833Z,19.50
2023-02-17T02:06:38.816Z,19.24
2023-02-17T02:09:09.384Z,19.49
2023-02-17T02:11:36.598Z,19.22
2023-02-17T02:14:07.252Z,19.10
2023-02-17T02:16:42.017Z,18.88
2023-02-17T02:19:27.576Z,19.04
2023-02-17T02:22:15.980Z,18.99
2023-02-17T02:24:59.838Z,19.13
2023-02-17T02:27:42.365Z,19.06
2023-02-17T02:30:45.219Z,18.96
2023-02-17T02:33:22.404Z,19.27
2023-02-17T02:35:59.011Z,18.67
2023-02-17T02:38:31.843Z,18.94
2023-02-17T02:41:04.948Z,18.96
2023-02-17T02:43:32.709Z,18.64
2023-02-17T02:45:59.491Z,18.95
2023-02-17T02:48:27.870Z,18.70
2023-02-17T02:51:05.494Z,18.82
2023-02-17T02:54:17.066Z,18.61
2023-02-17T02:56:57.976Z,18.75
2023-02-17T02:59:42.113Z,18.72
2023-02-17T03:02:17.413Z,18.73
2023-02-17T03:04:53.314Z,19.16
2023-02-17T03:07:24.975Z,19.16
2023-02-17T03:09:55.109Z,18.91
2023-02-17T03:12:23.484Z,19.00
2023-02-17T03:14:55.585Z,19.27
2023-02-17T03:17:22.719Z,18.84
2023-02-17T03:19:51.283Z,18.84
2023-02-17T03:22:23.931Z,18.33
2023-02-17T03:24:51.047Z,18.91
2023-02-17T03:27:17.984Z,19.11
2023-02-17T03:29:45.350Z,18.48
2023-02-17T03:32:12.602Z,18.45
2023-02-17T03:34:39.552Z,18.73
2023-02-17T03:37:07.835Z,18.67
2023-02-17T03:39:34.778Z,18.27
2023-02-17T03:42:03.134Z,18.46
2023-02-17T03:44:30.200Z,18.55
2023-02-17T03:46:57.024Z,18.72
2023-02-17T03:49:24.068Z,18.45
2023-02-17T03:51:51.242Z,18.06
2023-02-17T03:54:19.767Z,18.59
2023-02-17T03:56:46.469Z,18.76
2023-02-17T03:59:13.866Z,18.37
2023-02-17T04:01:41.082Z,18.54
2023-02-17T04:04:08.300Z,18.22
2023-02-17T04:06:35.451Z,17.96
2023-02-17T04:09:03.021Z,18.29
2023-02-17T04:11:31.210Z,18.33
2023-02-17T04:13:58.399Z,18.20
2023-02-17T04:16:25.296Z,18.21
2023-02-17T04:18:52.194Z,18.50
2023-02-17T04:21:18.955Z,18.42
2023-02-17T04:23:45.867Z,18.42
2023-02-17T04:26:12.641Z,18.43
2023-02-17T04:28:42.539Z,18.18
2023-02-17T04:31:09.929Z,17.90
2023-02-17T04:33:37.217Z,18.08
2023-02-17T04:36:05.112Z,18.00
2023-02-17T04:38:33.551Z,17.84
2023-02-17T04:41:02.071Z,17.34
2023-02-17T04:43:29.214Z,17.74
2023-02-17T04:45:58.552Z,18.20
2023-02-17T04:48:26.479Z,18.30
2023-02-17T04:50:53.867Z,18.30
2023-02-17T04:53:20.744Z,18.64
2023-02-17T04:55:49.055Z,18.94
2023-02-17T04:58:15.957Z,18.62
2023-02-17T05:00:42.708Z,18.82
2023-02-17T05:03:10.965Z,19.06
2023-02-17T05:05:38.076Z,19.09
2023-02-17T05:08:06.695Z,19.03
2023-02-17T05:10:33.822Z,19.10
2023-02-17T05:13:01.006Z,19.29
2023-02-17T05:15:27.808Z,19.06
2023-02-17T05:17:54.917Z,18.88
2023-02-17T05:20:23.551Z,18.84
2023-02-17T05:22:50.391Z,18.76
2023-02-17T05:25:17.577Z,18.93
2023-02-17T05:27:44.656Z,19.18
2023-02-17T05:30:12.420Z,19.34
2023-02-17T05:32:39.589Z,19.13
2023-02-17T05:35:07.444Z,19.06
2023-02-17T05:37:36.166Z,19.10
2023-02-17T05:40:03.618Z,19.06
2023-02-17T05:42:30.619Z,19.27
2023-02-17T05:44:57.474Z,19.20
2023-02-17T05:47:27.292Z,19.47
2023-02-17T05:49:54.787Z,19.29
2023-02-17T05:52:21.942Z,19.12
2023-02-17T05:54:50.421Z,19.56
2023-02-17T05:57:17.568Z,19.61
2023-02-17T05:59:44.304Z,19.42
2023-02-17T06:02:11.188Z,19.40
2023-02-17T06:04:38.436Z,19.73
2023-02-17T06:07:05.378Z,19.46
2023-02-17T06:09:32.212Z,19.74
2023-02-17T06:12:00.610Z,19.56
2023-02-17T06:14:27.780Z,19.76
2023-02-17T06:16:54.634Z,19.69
2023-02-17T06:19:21.789Z,19.77
2023-02-17T06:21:48.686Z,19.90
2023-02-17T06:24:15.514Z,20.03
2023-02-17T06:26:42.415Z,19.89
2023-02-17T06:29:10.784Z,19.56
2023-02-17T06:31:37.910Z,19.55
2023-02-17T06:34:06.635Z,19.74
2023-02-17T06:36:34.126Z,19.33
2023-02-17T06:39:00.980Z,19.60
2023-02-17T06:41:28.069Z,19.63
2023-02-17T06:43:55.086Z,19.56
2023-02-17T06:46:23.616Z,19.65
2023-02-17T06:48:50.938Z,19.35
2023-02-17T06:51:18.145Z,19.11
2023-02-17T06:53:44.875Z,19.65
2023-02-17T06:56:12.290Z,19.58
2023-02-17T06:58:39.428Z,19.65
2023-02-17T07:01:06.187Z,19.52
2023-02-17T07:03:34.370Z,19.39
2023-02-17T07:06:01.291Z,19.14
2023-02-17T07:08:28.407Z,19.05
2023-02-17T07:10:55.388Z,19.07
2023-02-17T07:13:22.584Z,19.02
2023-02-17T07:15:49.649Z,19.23
2023-02-17T07:18:16.539Z,19.35
2023-02-17T07:20:44.870Z,19.12
2023-02-17T07:23:11.747Z,19.20
2023-02-17T07:25:38.921Z,19.41
2023-02-17T07:28:05.698Z,19.49
2023-02-17T07:30:32.575Z,19.21
2023-02-17T07:32:59.343Z,19.51
2023-02-17T07:35:26.193Z,19.38
2023-02-17T07:37:57.412Z,19.49
2023-02-17T07:40:25.013Z,19.29
2023-02-17T07:42:51.845Z,18.99
2023-02-17T07:45:19.169Z,19.75
2023-02-17T07:47:46.477Z,19.90
2023-02-17T07:50:13.507Z,19.85
2023-02-17T07:52:40.622Z,18.90
2023-02-17T07:55:09.791Z,19.03
2023-02-17T07:57:36.840Z,19.55
2023-02-17T08:00:04.945Z,19.25
2023-02-17T08:02:32.118Z,19.27
2023-02-17T08:04:58.918Z,19.71
2023-02-17T08:07:26.183Z,19.42
2023-02-17T08:09:52.970Z,19.61
2023-02-17T08:12:21.852Z,19.84
2023-02-17T08:14:48.793Z,20.24
2023-02-17T08:17:15.644Z,19.83
2023-02-17T08:19:48.609Z,19.89
2023-02-17T08:22:16.051Z,20.06
2023-02-17T08:24:43.148Z,19.31
2023-02-17T08:27:10.283Z,19.61
2023-02-17T08:29:38.629Z,19.75
2023-02-17T08:32:05.554Z,19.95
2023-02-17T08:34:32.464Z,19.93
2023-02-17T08:36:59.554Z,20.24
2023-02-17T08:39:26.879Z,19.96
2023-02-17T08:41:54.103Z,20.35
2023-02-17T08:44:21.552Z,20.59
2023-02-17T08:46:51.646Z,20.78
2023-02-17T08:49:21.471Z,20.75
2023-02-17T08:51:48.433Z,20.84
2023-02-17T08:54:15.553Z,21.21
2023-02-17T08:56:43.892Z,20.97
2023-02-17T08:59:11.963Z,21.09
2023-02-17T09:01:39.737Z,20.84
2023-02-17T09:04:10.884Z,21.12
2023-02-17T09:06:41.278Z,20.26
2023-02-17T09:09:10.693Z,20.17
2023-02-17T09:11:37.890Z,21.22
2023-02-17T09:14:07.109Z,21.06
2023-02-17T09:16:34.501Z,21.54
2023-02-17T09:19:01.520Z,21.44
2023-02-17T09:21:30.017Z,20.57
2023-02-17T09:23:57.361Z,20.29
2023-02-17T09:26:24.263Z,20.35
2023-02-17T09:28:51.194Z,20.41
2023-02-17T09:31:20.788Z,20.35
2023-02-17T09:33:48.927Z,20.07
2023-02-17T09:36:20.421Z,20.54
2023-02-17T09:38:49.165Z,20.48
2023-02-17T09:41:21.023Z,20.44
2023-02-17T09:43:48.747Z,20.08
2023-02-17T09:46:21.917Z,20.70
2023-02-17T09:48:51.396Z,21.13
2023-02-17T09:51:27.186Z,21.54
2023-02-17T09:54:03.170Z,21.67
2023-02-17T09:56:34.233Z,21.89
2023-02-17T09:59:03.995Z,21.55
2023-02-17T10:01:33.249Z,21.10
2023-02-17T10:04:06.147Z,21.55
2023-02-17T10:06:36.131Z,21.89
2023-02-17T10:09:13.472Z,21.79
2023-02-17T10:11:47.814Z,21.72
2023-02-17T10:14:22.437Z,22.47
2023-02-17T10:16:55.067Z,22.98
2023-02-17T10:19:29.222Z,22.79
2023-02-17T10:22:06.190Z,22.67
2023-02-17T10:24:34.480Z,23.02
2023-02-17T10:27:15.228Z,23.28
2023-02-17T10:29:57.598Z,23.02
2023-02-17T10:32:26.084Z,22.57
2023-02-17T10:35:15.103Z,23.12
2023-02-17T10:37:47.971Z,22.18
2023-02-17T10:40:21.160Z,22.22
2023-02-17T10:42:50.734Z,22.38
2023-02-17T10:45:26.327Z,22.42
2023-02-17T10:47:58.333Z,21.82
2023-02-17T10:50:26.609Z,21.63
2023-02-17T10:52:55.280Z,22.20
2023-02-17T10:55:31.802Z,22.34
2023-02-17T10:58:05.000Z,22.12
2023-02-17T11:00:32.589Z,22.37
2023-02-17T11:02:59.567Z,22.01
2023-02-17T11:05:29.601Z,22.14
2023-02-17T11:08:00.905Z,22.25
2023-02-17T11:10:31.724Z,22.04
2023-02-17T11:12:59.779Z,22.13
2023-02-17T11:15:31.621Z,22.80
2023-02-17T11:18:01.402Z,22.57
2023-02-17T11:20:34.766Z,22.05
2023-02-17T11:23:06.239Z,21.63
2023-02-17T11:25:36.205Z,21.29
2023-02-17T11:28:06.040Z,20.56
2023-02-17T11:30:35.484Z,21.26
2023-02-17T11:33:12.608Z,21.53
2023-02-17T11:35:50.096Z,21.74
2023-02-17T11:38:20.040Z,21.80
2023-02-17T11:40:57.686Z,21.63
2023-02-17T11:43:25.260Z,21.74
2023-02-17T11:46:06.819Z,21.29
2023-02-17T11:49:10.462Z,20.33
2023-02-17T11:51:51.993Z,19.84
2023-02-17T11:54:26.218Z,20.74
2023-02-17T11:57:02.628Z,20.52
2023-02-17T11:59:49.692Z,21.23
2023-02-17T12:02:24.533Z,21.69
2023-02-17T12:05:02.298Z,21.15
2023-02-17T12:07:39.809Z,20.48
2023-02-17T12:10:16.906Z,21.39
2023-02-17T12:12:58.808Z,21.31
2023-02-17T12:15:39.285Z,21.37
2023-02-17T12:18:22.469Z,21.67
2023-02-17T12:20:57.765Z,21.30
2023-02-17T12:24:01.066Z,21.14
2023-02-17T12:26:36.811Z,21.19
2023-02-17T12:29:20.625Z,20.61
2023-02-17T12:32:10.525Z,20.41
2023-02-17T12:34:42.581Z,20.29
2023-02-17T12:37:18.530Z,20.39
2023-02-17T12:39:52.138Z,20.19
2023-02-17T12:42:24.795Z,19.56
2023-02-17T12:44:59.791Z,19.51
2023-02-17T12:47:32.553Z,20.10
2023-02-17T12:50:05.598Z,19.92
2023-02-17T12:52:37.317Z,20.05
2023-02-17T12:55:13.076Z,19.64
2023-02-17T12:57:46.658Z,19.48
2023-02-17T13:00:22.009Z,19.33
2023-02-17T13:02:49.584Z,19.40
2023-02-17T13:05:24.585Z,19.53
2023-02-17T13:08:00.041Z,19.88
2023-02-17T13:10:34.217Z,19.65
2023-02-17T13:13:07.307Z,19.47
2023-02-17T13:15:39.021Z,19.13
2023-02-17T13:18:08.560Z,19.32
2023-02-17T13:20:51.669Z,19.31
2023-02-17T13:23:35.314Z,19.02
2023-02-17T13:26:36.079Z,18.99
2023-02-17T13:29:18.500Z,19.15
2023-02-17T13:31:50.823Z,19.22
2023-02-17T13:34:32.924Z,19.43
2023-02-17T13:37:03.326Z,19.68
2023-02-17T13:39:34.076Z,19.87
2023-02-17T13:42:01.964Z,20.55
2023-02-17T13:44:31.103Z,20.89
2023-02-17T13:47:02.604Z,20.93
2023-02-17T13:49:31.478Z,21.01
2023-02-17T13:52:08.619Z,20.73
2023-02-17T13:54:35.772Z,20.07
2023-02-17T13:57:02.752Z,20.39
2023-02-17T13:59:29.857Z,20.32
2023-02-17T14:01:56.808Z,20.69
2023-02-17T14:04:28.227Z,20.15
2023-02-17T14:06:58.381Z,20.17
2023-02-17T14:09:27.950Z,20.62
2023-02-17T14:11:56.172Z,20.77
2023-02-17T14:14:26.232Z,20.64
2023-02-17T14:16:59.671Z,20.38
2023-02-17T14:19:28.426Z,20.24
2023-02-17T14:22:02.946Z,20.32
2023-02-17T14:24:31.887Z,20.13
2023-02-17T14:27:01.191Z,19.78
2023-02-17T14:29:39.695Z,19.78
2023-02-17T14:32:06.903Z,19.99
2023-02-17T14:34:37.158Z,19.73
2023-02-17T14:37:17.924Z,19.63
2023-02-17T14:39:45.016Z,19.95
2023-02-17T14:42:12.179Z,19.52
2023-02-17T14:44:39.864Z,19.81
2023-02-17T14:47:07.047Z,20.22
2023-02-17T14:49:35.456Z,19.98
2023-02-17T14:52:18.702Z,19.81
2023-02-17T14:54:45.706Z,20.10
2023-02-17T14:57:14.616Z,20.27
2023-02-17T14:59:42.454Z,20.39
2023-02-17T15:02:18.957Z,20.21
2023-02-17T15:04:47.444Z,20.13
2023-02-17T15:07:17.267Z,19.92
2023-02-17T15:09:45.914Z,19.81
2023-02-17T15:12:15.662Z,19.95
2023-02-17T15:14:42.563Z,19.98
2023-02-17T15:17:10.823Z,20.02
2023-02-17T15:19:38.457Z,20.17
2023-02-17T15:22:07.031Z,20.03
2023-02-17T15:24:35.424Z,19.88
2023-02-17T15:27:03.194Z,19.72
2023-02-17T15:29:30.572Z,19.81
2023-02-17T15:32:01.096Z,19.72
2023-02-17T15:34:32.324Z,19.92
2023-02-17T15:37:00.308Z,19.84
2023-02-17T15:39:28.920Z,19.69
2023-02-17T15:42:00.580Z,19.66
2023-02-17T15:44:35.382Z,19.54
2023-02-17T15:47:02.446Z,19.68
2023-02-17T15:49:29.465Z,19.73
2023-02-17T15:51:56.739Z,19.61
2023-02-17T15:54:23.612Z,19.42
2023-02-17T15:56:53.860Z,19.62
2023-02-17T15:59:23.531Z,19.78
2023-02-17T16:01:50.551Z,19.67
2023-02-17T16:04:18.172Z,19.77
2023-02-17T16:06:45.125Z,19.82
2023-02-17T16:09:12.191Z,19.73
2023-02-17T16:11:47.736Z,19.77
2023-02-17T16:14:24.264Z,19.53
2023-02-17T16:16:51.388Z,19.56
2023-02-17T16:19:18.528Z,19.55
2023-02-17T16:21:47.163Z,19.67
2023-02-17T16:24:14.285Z,19.77
2023-02-17T16:26:42.341Z,19.75
2023-02-17T16:29:14.378Z,19.64
2023-02-17T16:31:43.094Z,19.72
2023-02-17T16:34:15.800Z,19.64
2023-02-17T16:36:42.935Z,19.63
2023-02-17T16:39:13.594Z,19.57
2023-02-17T16:41:41.831Z,19.59
2023-02-17T16:44:13.219Z,19.64
2023-02-17T16:46:48.260Z,19.53
2023-02-17T16:49:24.580Z,19.51
2023-02-17T16:51:52.006Z,19.60
2023-02-17T16:54:19.002Z,19.54
2023-02-17T16:56:48.387Z,19.55
2023-02-17T16:59:16.257Z,19.55
2023-02-17T17:01:43.305Z,19.54
2023-02-17T17:04:11.811Z,19.49
2023-02-17T17:06:43.132Z,19.48
2023-02-17T17:09:16.029Z,19.52
2023-02-17T17:11:43.068Z,19.59
2023-02-17T17:14:10.207Z,19.32
2023-02-17T17:16:37.933Z,19.36
2023-02-17T17:19:05.131Z,19.33
2023-02-17T17:21:33.721Z,19.39
2023-02-17T17:24:00.633Z,19.32
2023-02-17T17:26:32.040Z,19.27
2023-02-17T17:28:59.453Z,19.34
2023-02-17T17:31:26.925Z,19.33
2023-02-17T17:33:54.040Z,19.47
2023-02-17T17:36:24.393Z,19.62
2023-02-17T17:38:54.195Z,19.58
2023-02-17T17:41:22.410Z,19.53
2023-02-17T17:43:49.329Z,19.55
2023-02-17T17:46:18.496Z,19.56
2023-02-17T17:48:45.874Z,19.46
2023-02-17T17:51:15.340Z,19.49
2023-02-17T17:53:42.876Z,19.51
2023-02-17T17:56:14.348Z,19.50
2023-02-17T17:58:41.203Z,19.51
2023-02-17T18:01:08.053Z,19.54
2023-02-17T18:03:35.100Z,19.50
2023-02-17T18:06:02.574Z,19.50
2023-02-17T18:08:30.728Z,19.46
2023-02-17T18:10:58.049Z,19.47
2023-02-17T18:13:27.711Z,19.51
2023-02-17T18:15:55.123Z,19.52
2023-02-17T18:18:22.849Z,19.47
2023-02-17T18:20:49.637Z,19.43
2023-02-17T18:23:16.749Z,19.37
2023-02-17T18:25:43.591Z,19.40
2023-02-17T18:28:10.751Z,19.41
2023-02-17T18:30:39.023Z,19.47
2023-02-17T18:33:06.010Z,19.50
2023-02-17T18:35:34.861Z,19.44
2023-02-17T18:38:02.014Z,19.25
2023-02-17T18:40:29.113Z,19.14
2023-02-17T18:42:56.470Z,19.07
2023-02-17T18:45:23.581Z,19.10
2023-02-17T18:47:51.767Z,19.14
2023-02-17T18:50:19.468Z,19.08
2023-02-17T18:52:46.840Z,19.04
2023-02-17T18:55:15.046Z,19.01
2023-02-17T18:57:42.408Z,18.96
2023-02-17T19:00:11.485Z,18.93
2023-02-17T19:02:38.834Z,18.91
2023-02-17T19:05:08.703Z,18.87
2023-02-17T19:07:35.793Z,18.87
2023-02-17T19:10:02.761Z,18.83
2023-02-17T19:12:29.859Z,18.84
2023-02-17T19:14:57.000Z,18.87
2023-02-17T19:17:24.868Z,18.91
2023-02-17T19:19:52.521Z,18.91
2023-02-17T19:22:20.748Z,18.90
2023-02-17T19:24:51.443Z,18.90
2023-02-17T19:27:18.512Z,18.90
2023-02-17T19:29:45.404Z,18.87
2023-02-17T19:32:12.584Z,18.83
2023-02-17T19:34:39.738Z,18.74
2023-02-17T19:37:06.825Z,18.71
2023-02-17T19:39:36.050Z,18.77
2023-02-17T19:42:03.760Z,18.78
2023-02-17T19:44:31.180Z,18.78
2023-02-17T19:46:58.766Z,18.81
2023-02-17T19:49:25.643Z,18.88
2023-02-17T19:51:52.642Z,18.87
2023-02-17T19:54:19.696Z,18.95
2023-02-17T19:56:47.837Z,19.02
2023-02-17T19:59:14.595Z,19.03
2023-02-17T20:01:43.284Z,19.14
2023-02-17T20:04:10.352Z,19.13
2023-02-17T20:06:40.335Z,19.11
2023-02-17T20:09:09.912Z,19.06
2023-02-17T20:11:37.009Z,18.98
2023-02-17T20:14:05.336Z,18.97
2023-02-17T20:16:32.235Z,19.08
2023-02-17T20:19:01.276Z,19.05
2023-02-17T20:21:30.442Z,19.11
2023-02-17T20:23:58.444Z,19.11
2023-02-17T20:26:27.550Z,19.22
2023-02-17T20:28:55.656Z,19.23
2023-02-17T20:31:26.051Z,19.30
2023-02-17T20:33:53.523Z,19.30
2023-02-17T20:36:20.654Z,19.33
2023-02-17T20:38:48.667Z,19.36
2023-02-17T20:41:18.067Z,19.42
2023-02-17T20:43:44.902Z,19.42
2023-02-17T20:46:14.325Z,19.58
2023-02-17T20:48:43.151Z,19.70
2023-02-17T20:51:10.020Z,19.68
2023-02-17T20:53:36.908Z,19.74
2023-02-17T20:56:12.227Z,19.84
2023-02-17T20:58:39.098Z,19.97
2023-02-17T21:01:07.445Z,20.04
2023-02-17T21:03:34.244Z,20.12
2023-02-17T21:06:05.536Z,19.97
2023-02-17T21:08:33.080Z,20.13
2023-02-17T21:11:00.204Z,20.05
2023-02-17T21:13:29.029Z,20.09
2023-02-17T21:15:56.581Z,19.87
2023-02-17T21:18:23.651Z,19.54
2023-02-17T21:20:50.964Z,19.78
2023-02-17T21:23:19.358Z,19.44
2023-02-17T21:25:46.589Z,19.68
2023-02-17T21:28:15.817Z,19.76
2023-02-17T21:30:46.041Z,19.87
2023-02-17T21:33:13.077Z,19.53
2023-02-17T21:35:40.008Z,19.47
2023-02-17T21:38:06.947Z,19.40
2023-02-17T21:40:35.116Z,19.52
2023-02-17T21:43:02.422Z,19.85
2023-02-17T21:45:29.454Z,19.84
2023-02-17T21:47:56.649Z,19.73
2023-02-17T21:50:24.000Z,19.51
2023-02-17T21:52:50.865Z,19.77
2023-02-17T21:55:17.976Z,19.78
2023-02-17T21:57:46.768Z,20.03
2023-02-17T22:00:15.411Z,19.75
2023-02-17T22:02:44.241Z,20.07
2023-02-17T22:05:11.774Z,19.86
2023-02-17T22:07:38.686Z,19.96
2023-02-17T22:10:07.333Z,19.95
2023-02-17T22:12:35.508Z,20.03
2023-02-17T22:15:05.194Z,19.88
2023-02-17T22:17:32.119Z,19.69
2023-02-17T22:19:59.163Z,19.61
2023-02-17T22:22:26.302Z,19.49
2023-02-17T22:24:53.103Z,19.68
2023-02-17T22:27:20.269Z,19.59
2023-02-17T22:29:47.322Z,19.53
2023-02-17T22:32:15.754Z,19.04
2023-02-17T22:34:42.537Z,19.28
2023-02-17T22:37:09.338Z,19.16
2023-02-17T22:39:36.163Z,19.53
2023-02-17T22:42:03.295Z,19.61
2023-02-17T22:44:30.508Z,19.40
2023-02-17T22:46:57.601Z,19.58
2023-02-17T22:49:25.865Z,19.35
2023-02-17T22:51:52.724Z,19.21
2023-02-17T22:54:19.525Z,19.76
2023-02-17T22:56:46.496Z,19.62
2023-02-17T22:59:13.672Z,19.28
2023-02-17T23:01:40.837Z,19.45
2023-02-17T23:04:08.002Z,19.26
2023-02-17T23:06:37.531Z,19.71
2023-02-17T23:09:05.466Z,19.89
2023-02-17T23:11:36.372Z,19.72
2023-02-17T23:14:03.468Z,19.83
2023-02-17T23:16:30.625Z,19.58
2023-02-17T23:18:57.491Z,19.71
2023-02-17T23:21:24.197Z,19.26
2023-02-17T23:23:52.647Z,19.14
2023-02-17T23:26:19.804Z,19.45
2023-02-17T23:28:46.572Z,19.72
2023-02-17T23:31:13.445Z,19.40
2023-02-17T23:33:40.608Z,19.51
2023-02-17T23:36:09.342Z,19.22
2023-02-17T23:38:36.438Z,19.44
2023-02-17T23:41:04.896Z,19.69
2023-02-17T23:43:32.187Z,18.99
2023-02-17T23:45:59.331Z,18.75
2023-02-17T23:48:26.680Z,19.27
2023-02-17T23:50:56.846Z,18.96
2023-02-17T23:53:24.215Z,19.04
2023-02-17T23:56:01.046Z,19.10
2023-02-17T23:58:29.732Z,19.57
